createdAt,value
2022-09-23T00:01:18.982Z,15.48
2022-09-23T00:03:46.917Z,14.35
2022-09-23T00:06:16.552Z,15.25
2022-09-23T00:08:44.785Z,14.80
2022-09-23T00:11:18.702Z,15.40
2022-09-23T00:13:48.257Z,15.68
2022-09-23T00:16:22.641Z,15.88
2022-09-23T00:18:50.936Z,15.00
2022-09-23T00:21:21.796Z,15.85
2022-09-23T00:23:49.496Z,15.50
2022-09-23T00:26:19.252Z,16.65
2022-09-23T00:28:47.014Z,15.75
2022-09-23T00:31:18.342Z,14.93
2022-09-23T00:33:45.662Z,15.45
2022-09-23T00:36:16.192Z,15.32
2022-09-23T00:38:44.933Z,15.35
2022-09-23T00:41:16.395Z,15.95
2022-09-23T00:43:54.756Z,15.82
2022-09-23T00:46:28.650Z,14.48
2022-09-23T00:49:03.608Z,14.52
2022-09-23T00:51:38.782Z,14.63
2022-09-23T00:54:06.900Z,16.17
2022-09-23T00:56:35.869Z,15.98
2022-09-23T00:59:03.961Z,15.38
2022-09-23T01:01:31.133Z,16.73
2022-09-23T01:03:59.084Z,14.95
2022-09-23T01:06:26.683Z,16.52
2022-09-23T01:08:53.930Z,15.93
2022-09-23T01:11:29.879Z,16.10
2022-09-23T01:14:09.212Z,15.60
2022-09-23T01:16:39.363Z,17.13
2022-09-23T01:19:28.074Z,17.80
2022-09-23T01:22:05.230Z,16.70
2022-09-23T01:24:49.304Z,16.55
2022-09-23T01:27:57.872Z,17.27
2022-09-23T01:31:02.086Z,15.88
2022-09-23T01:33:55.904Z,14.73
2022-09-23T01:36:36.952Z,14.52
2022-09-23T01:39:13.491Z,13.88
2022-09-23T01:42:05.801Z,15.25
2022-09-23T01:45:00.577Z,13.88
2022-09-23T01:47:45.094Z,12.70
2022-09-23T01:50:37.939Z,13.18
2022-09-23T01:53:18.434Z,14.13
2022-09-23T01:55:51.728Z,13.02
2022-09-23T01:58:29.333Z,12.68
2022-09-23T02:01:07.447Z,12.40
2022-09-23T02:03:42.695Z,12.88
2022-09-23T02:06:34.891Z,12.13
2022-09-23T02:09:12.975Z,12.07
2022-09-23T02:11:42.161Z,12.05
2022-09-23T02:14:15.864Z,11.25
2022-09-23T02:16:47.725Z,11.07
2022-09-23T02:19:24.497Z,11.38
2022-09-23T02:22:00.963Z,11.50
2022-09-23T02:24:32.385Z,11.10
2022-09-23T02:27:02.251Z,10.82
2022-09-23T02:29:40.222Z,12.00
2022-09-23T02:32:13.166Z,11.40
2022-09-23T02:34:43.802Z,11.27
2022-09-23T02:37:31.497Z,11.77
2022-09-23T02:40:25.264Z,12.18
2022-09-23T02:43:07.977Z,12.05
2022-09-23T02:45:38.260Z,12.30
2022-09-23T02:50:40.630Z,12.98
2022-09-23T02:53:08.064Z,13.02
2022-09-23T02:55:35.030Z,13.50
2022-09-23T02:58:03.685Z,14.05
2022-09-23T03:00:50.441Z,14.55
2022-09-23T03:03:30.231Z,14.00
2022-09-23T03:05:59.950Z,15.20
2022-09-23T03:08:36.859Z,13.85
2022-09-23T03:11:11.849Z,13.23
2022-09-23T03:14:07.140Z,15.13
2022-09-23T03:17:00.707Z,15.07
2022-09-23T03:19:34.344Z,14.10
2022-09-23T03:22:18.646Z,13.50
2022-09-23T03:24:51.856Z,13.82
2022-09-23T03:27:28.697Z,14.20
2022-09-23T03:29:57.292Z,12.90
2022-09-23T03:32:29.837Z,13.05
2022-09-23T03:35:00.300Z,13.73
2022-09-23T03:37:35.974Z,13.70
2022-09-23T03:40:09.305Z,13.52
2022-09-23T03:42:38.926Z,14.27
2022-09-23T03:45:10.399Z,13.90
2022-09-23T03:47:39.805Z,14.20
2022-09-23T03:50:07.697Z,14.38
2022-09-23T03:52:35.046Z,14.63
2022-09-23T03:55:02.242Z,15.20
2022-09-23T03:57:30.564Z,15.32
2022-09-23T03:59:57.739Z,15.05
2022-09-23T04:02:25.326Z,15.57
2022-09-23T04:04:52.820Z,16.30
2022-09-23T04:07:20.585Z,18.08
2022-09-23T04:09:48.369Z,21.35
2022-09-23T04:12:16.933Z,22.13
2022-09-23T04:14:45.227Z,24.65
2022-09-23T04:17:13.178Z,27.25
2022-09-23T04:19:40.626Z,29.75
2022-09-23T04:22:08.906Z,30.10
2022-09-23T04:24:38.123Z,30.88
2022-09-23T04:27:06.165Z,30.25
2022-09-23T04:29:33.415Z,29.25
2022-09-23T04:32:00.697Z,27.23
2022-09-23T04:34:28.353Z,26.55
2022-09-23T04:36:55.671Z,25.60
2022-09-23T04:39:24.105Z,25.33
2022-09-23T04:44:22.275Z,23.98
2022-09-23T04:46:49.461Z,19.98
2022-09-23T04:49:16.777Z,21.05
2022-09-23T04:51:46.391Z,20.50
2022-09-23T04:54:15.163Z,18.02
2022-09-23T04:56:42.669Z,17.67
2022-09-23T04:59:09.884Z,17.20
2022-09-23T05:01:38.530Z,15.18
2022-09-23T05:04:08.956Z,13.18
2022-09-23T05:06:36.469Z,13.38
2022-09-23T05:09:06.248Z,14.43
2022-09-23T05:11:34.289Z,12.23
2022-09-23T05:14:01.519Z,12.55
2022-09-23T05:16:29.626Z,12.57
2022-09-23T05:18:58.503Z,11.80
2022-09-23T05:21:29.119Z,10.48
2022-09-23T05:23:59.367Z,10.40
2022-09-23T05:26:29.522Z,9.27
2022-09-23T05:28:58.216Z,9.00
2022-09-23T05:31:28.394Z,9.23
2022-09-23T05:36:28.574Z,9.70
2022-09-23T05:38:56.865Z,14.35
2022-09-23T05:41:25.427Z,9.10
2022-09-23T05:43:54.462Z,9.07
2022-09-23T05:46:24.108Z,10.80
2022-09-23T05:48:52.752Z,9.38
2022-09-23T05:51:28.767Z,9.80
2022-09-23T05:53:58.530Z,9.88
2022-09-23T05:56:28.488Z,9.68
2022-09-23T05:58:58.648Z,9.25
2022-09-23T06:03:57.555Z,7.95
2022-09-23T06:06:30.194Z,8.33
2022-09-23T06:09:02.012Z,7.32
2022-09-23T06:11:34.219Z,6.70
2022-09-23T06:14:02.522Z,7.40
2022-09-23T06:16:33.197Z,7.13
2022-09-23T06:19:06.118Z,7.70
2022-09-23T06:21:38.873Z,7.18
2022-09-23T06:24:07.079Z,6.40
2022-09-23T06:26:35.428Z,5.68
2022-09-23T06:29:04.099Z,5.50
2022-09-23T06:31:31.477Z,5.20
2022-09-23T06:34:09.792Z,5.75
2022-09-23T06:36:43.955Z,4.95
2022-09-23T06:39:16.347Z,5.72
2022-09-23T06:41:45.509Z,4.80
2022-09-23T06:44:16.408Z,5.20
2022-09-23T06:46:44.561Z,5.32
2022-09-23T06:49:13.661Z,5.57
2022-09-23T06:51:41.608Z,5.47
2022-09-23T06:54:09.179Z,5.80
2022-09-23T06:56:39.429Z,5.38
2022-09-23T06:59:09.864Z,5.50
2022-09-23T07:01:37.415Z,7.15
2022-09-23T07:04:04.690Z,6.65
2022-09-23T07:06:32.125Z,6.20
2022-09-23T07:08:59.117Z,5.85
2022-09-23T07:11:27.351Z,6.78
2022-09-23T07:13:54.606Z,5.07
2022-09-23T07:16:21.815Z,5.07
2022-09-23T07:18:48.990Z,5.13
2022-09-23T07:21:18.525Z,5.55
2022-09-23T07:23:48.229Z,3.60
2022-09-23T07:26:19.424Z,3.95
2022-09-23T07:28:47.952Z,4.20
2022-09-23T07:31:29.950Z,4.25
2022-09-23T07:44:49.957Z,5.05
2022-09-23T07:47:17.340Z,5.53
2022-09-23T07:49:44.765Z,5.97
2022-09-23T07:52:12.941Z,5.15
2022-09-23T07:54:40.638Z,5.93
2022-09-23T07:57:07.801Z,5.38
2022-09-23T07:59:34.891Z,5.78
2022-09-23T08:02:02.398Z,5.40
2022-09-23T08:04:31.650Z,5.50
2022-09-23T08:07:04.823Z,5.35
2022-09-23T08:09:41.625Z,5.65
2022-09-23T08:12:16.146Z,5.43
2022-09-23T08:14:44.172Z,5.40
2022-09-23T08:17:15.111Z,5.18
2022-09-23T08:19:43.352Z,5.75
2022-09-23T08:22:12.407Z,6.80
2022-09-23T08:24:39.956Z,5.88
2022-09-23T08:27:07.173Z,5.78
2022-09-23T08:29:35.316Z,5.05
2022-09-23T08:32:02.828Z,5.10
2022-09-23T08:34:32.838Z,4.97
2022-09-23T08:37:23.215Z,5.50
2022-09-23T08:39:52.937Z,5.20
2022-09-23T08:42:28.929Z,4.78
2022-09-23T08:45:00.076Z,4.93
2022-09-23T08:47:35.751Z,5.65
2022-09-23T08:50:18.741Z,5.38
2022-09-23T08:52:58.748Z,4.43
2022-09-23T08:55:44.631Z,4.55
2022-09-23T08:58:42.378Z,4.78
2022-09-23T09:01:28.625Z,4.40
2022-09-23T09:03:57.311Z,4.47
2022-09-23T09:06:51.855Z,4.60
2022-09-23T09:09:31.331Z,4.60
2022-09-23T09:12:22.898Z,5.15
2022-09-23T09:15:07.979Z,5.22
2022-09-23T09:17:38.939Z,4.95
2022-09-23T09:20:41.618Z,5.93
2022-09-23T09:23:11.991Z,5.28
2022-09-23T09:29:39.632Z,4.93
2022-09-23T09:32:34.005Z,5.40
2022-09-23T09:35:24.506Z,5.90
2022-09-23T09:37:53.469Z,5.82
2022-09-23T09:40:21.026Z,5.70
2022-09-23T09:42:50.510Z,5.90
2022-09-23T09:45:28.025Z,7.30
2022-09-23T09:47:56.917Z,5.95
2022-09-23T09:50:47.768Z,5.60
2022-09-23T09:53:28.186Z,6.60
2022-09-23T09:56:05.970Z,7.60
2022-09-23T09:59:11.821Z,6.57
2022-09-23T10:02:30.231Z,7.00
2022-09-23T10:05:05.593Z,5.97
2022-09-23T10:07:35.193Z,5.72
2022-09-23T10:16:43.058Z,4.53
2022-09-23T10:19:38.441Z,4.20
2022-09-23T10:22:21.015Z,4.80
2022-09-23T10:24:55.136Z,4.80
2022-09-23T10:27:36.611Z,5.18
2022-09-23T10:30:24.388Z,4.13
2022-09-23T10:32:55.094Z,4.82
2022-09-23T10:35:24.558Z,4.55
2022-09-23T10:37:56.970Z,5.15
2022-09-23T10:40:48.987Z,4.50
2022-09-23T10:44:00.360Z,3.97
2022-09-23T10:46:41.743Z,3.78
2022-09-23T10:49:35.286Z,3.70
2022-09-23T10:52:20.677Z,4.00
2022-09-23T10:55:03.309Z,4.43
2022-09-23T10:57:47.479Z,3.88
2022-09-23T11:00:23.645Z,4.25
2022-09-23T11:03:26.188Z,4.22
2022-09-23T11:06:13.532Z,5.10
2022-09-23T11:08:56.444Z,6.00
2022-09-23T11:12:21.470Z,5.68
2022-09-23T11:15:16.841Z,5.50
2022-09-23T11:17:47.218Z,5.70
2022-09-23T11:21:06.139Z,5.88
2022-09-23T11:24:02.518Z,6.28
2022-09-23T11:27:13.618Z,6.00
2022-09-23T11:29:59.996Z,5.38
2022-09-23T11:32:27.754Z,5.80
2022-09-23T11:35:11.175Z,5.93
2022-09-23T11:37:51.497Z,5.57
2022-09-23T11:40:22.107Z,5.85
2022-09-23T11:43:32.449Z,5.78
2022-09-23T11:46:31.011Z,5.43
2022-09-23T11:49:01.261Z,5.25
2022-09-23T11:51:37.636Z,6.60
2022-09-23T11:54:23.630Z,6.03
2022-09-23T11:57:04.557Z,6.07
2022-09-23T11:59:39.496Z,6.00
2022-09-23T12:02:29.617Z,5.32
2022-09-23T12:05:13.138Z,6.43
2022-09-23T12:08:05.656Z,6.22
2022-09-23T12:10:57.374Z,6.45
2022-09-23T12:16:36.891Z,6.47
2022-09-23T12:19:28.881Z,6.55
2022-09-23T12:22:18.719Z,8.30
2022-09-23T12:25:18.932Z,7.22
2022-09-23T12:27:51.325Z,7.85
2022-09-23T12:30:33.770Z,6.32
2022-09-23T12:33:10.190Z,5.83
2022-09-23T12:35:46.592Z,6.15
2022-09-23T12:38:48.937Z,6.78
2022-09-23T12:41:52.919Z,5.78
2022-09-23T12:44:42.277Z,5.40
2022-09-23T12:47:15.083Z,5.97
2022-09-23T12:49:43.797Z,5.90
2022-09-23T12:52:10.756Z,6.07
2022-09-23T12:55:22.200Z,5.78
2022-09-23T12:59:01.817Z,5.60
2022-09-23T13:01:39.095Z,5.10
2022-09-23T13:04:45.815Z,5.28
2022-09-23T13:07:17.315Z,5.40
2022-09-23T13:09:51.056Z,5.75
2022-09-23T13:12:24.889Z,26.90
2022-09-23T13:15:54.453Z,4.78
2022-09-23T13:18:52.670Z,5.40
2022-09-23T13:21:44.986Z,4.93
2022-09-23T13:24:33.616Z,4.93
2022-09-23T13:27:06.099Z,5.40
2022-09-23T13:29:58.000Z,4.90
2022-09-23T13:32:31.839Z,5.80
2022-09-23T13:35:04.854Z,5.22
2022-09-23T13:37:40.172Z,5.25
2022-09-23T13:40:10.251Z,5.88
2022-09-23T13:42:41.222Z,5.00
2022-09-23T13:47:44.800Z,5.63
2022-09-23T13:50:20.309Z,5.68
2022-09-23T13:52:53.727Z,5.78
2022-09-23T13:55:39.031Z,6.53
2022-09-23T13:58:21.292Z,7.25
2022-09-23T14:00:49.499Z,6.95
2022-09-23T14:03:18.379Z,7.13
2022-09-23T14:05:46.919Z,6.78
2022-09-23T14:08:15.298Z,6.70
2022-09-23T14:10:46.167Z,6.32
2022-09-23T14:13:35.349Z,6.45
2022-09-23T14:16:04.269Z,6.65
2022-09-23T14:18:46.341Z,6.57
2022-09-23T14:21:36.295Z,6.03
2022-09-23T14:24:16.903Z,6.60
2022-09-23T14:26:56.788Z,6.65
2022-09-23T14:29:27.381Z,6.35
2022-09-23T14:32:06.204Z,6.85
2022-09-23T14:34:42.370Z,6.43
2022-09-23T14:37:40.665Z,6.78
2022-09-23T14:40:23.316Z,6.78
2022-09-23T14:42:57.003Z,6.13
2022-09-23T14:45:28.211Z,6.78
2022-09-23T14:48:05.993Z,6.47
2022-09-23T14:50:37.086Z,6.68
2022-09-23T14:53:25.270Z,6.65
2022-09-23T14:56:07.398Z,7.68
2022-09-23T14:58:52.054Z,7.88
2022-09-23T15:01:32.600Z,7.75
2022-09-23T15:04:31.362Z,7.35
2022-09-23T15:07:03.902Z,8.13
2022-09-23T15:09:41.605Z,8.07
2022-09-23T15:12:14.796Z,8.43
2022-09-23T15:14:46.964Z,8.20
2022-09-23T15:17:23.372Z,7.45
2022-09-23T15:19:57.543Z,7.15
2022-09-23T15:22:25.972Z,8.02
2022-09-23T15:24:54.532Z,8.20
2022-09-23T15:27:33.609Z,7.95
2022-09-23T15:30:19.459Z,7.63
2022-09-23T15:32:47.010Z,7.68
2022-09-23T15:35:21.100Z,7.65
2022-09-23T15:37:49.985Z,7.75
2022-09-23T15:40:24.133Z,7.65
2022-09-23T15:42:56.224Z,8.90
2022-09-23T15:45:36.160Z,7.80
2022-09-23T15:48:12.648Z,7.85
2022-09-23T15:50:41.382Z,8.20
2022-09-23T15:53:13.385Z,8.18
2022-09-23T15:55:40.571Z,8.40
2022-09-23T15:58:07.921Z,8.30
2022-09-23T16:00:36.724Z,7.93
2022-09-23T16:03:06.846Z,8.30
2022-09-23T16:05:39.893Z,8.27
2022-09-23T16:08:10.131Z,8.23
2022-09-23T16:10:38.087Z,8.18
2022-09-23T16:13:08.501Z,7.53
2022-09-23T16:18:02.773Z,6.53
2022-09-23T16:20:30.589Z,6.45
2022-09-23T16:22:59.804Z,6.60
2022-09-23T16:25:29.398Z,7.18
2022-09-23T16:27:58.621Z,6.60
2022-09-23T16:30:28.275Z,7.80
2022-09-23T16:32:56.198Z,7.43
2022-09-23T16:35:28.142Z,9.38
2022-09-23T16:37:56.285Z,6.68
2022-09-23T16:40:24.529Z,6.60
2022-09-23T16:42:54.597Z,6.53
2022-09-23T16:45:23.445Z,5.68
2022-09-23T16:47:52.717Z,6.57
2022-09-23T16:50:25.383Z,31.40
2022-09-23T16:52:56.391Z,6.80
2022-09-23T16:55:25.821Z,6.78
2022-09-23T16:57:54.372Z,6.72
2022-09-23T17:00:41.168Z,6.38
2022-09-23T17:03:26.640Z,7.75
2022-09-23T17:05:55.020Z,6.07
2022-09-23T17:08:23.001Z,5.80
2022-09-23T17:10:58.861Z,6.55
2022-09-23T17:13:30.405Z,6.38
2022-09-23T17:15:57.832Z,6.20
2022-09-23T17:18:27.302Z,6.63
2022-09-23T17:21:01.496Z,6.97
2022-09-23T17:23:31.593Z,7.07
2022-09-23T17:25:59.672Z,6.55
2022-09-23T17:28:27.341Z,6.88
2022-09-23T17:31:00.546Z,7.35
2022-09-23T17:33:30.603Z,6.85
2022-09-23T17:36:00.303Z,6.85
2022-09-23T17:38:29.599Z,6.70
2022-09-23T17:40:59.221Z,6.78
2022-09-23T17:43:26.832Z,6.78
2022-09-23T17:45:56.354Z,6.53
2022-09-23T17:48:25.650Z,6.30
2022-09-23T17:51:04.370Z,6.00
2022-09-23T17:53:35.975Z,6.50
2022-09-23T17:56:06.599Z,6.07
2022-09-23T17:58:36.515Z,6.03
2022-09-23T18:01:05.411Z,5.95
2022-09-23T18:03:33.728Z,5.95
2022-09-23T18:06:09.570Z,5.47
2022-09-23T18:08:36.946Z,5.72
2022-09-23T18:11:13.075Z,5.40
2022-09-23T18:13:40.815Z,6.47
2022-09-23T18:16:08.674Z,6.07
2022-09-23T18:18:37.070Z,6.13
2022-09-23T18:21:07.183Z,6.05
2022-09-23T18:23:37.450Z,5.68
2022-09-23T18:26:05.169Z,5.60
2022-09-23T18:28:34.844Z,6.45
2022-09-23T18:31:02.265Z,5.65
2022-09-23T18:33:29.441Z,5.93
2022-09-23T18:36:00.054Z,6.35
2022-09-23T18:38:27.219Z,5.80
2022-09-23T18:40:57.853Z,5.45
2022-09-23T18:46:01.478Z,6.45
2022-09-23T18:48:49.194Z,6.63
2022-09-23T18:51:18.034Z,6.40
2022-09-23T18:53:50.387Z,6.43
2022-09-23T18:56:20.718Z,6.78
2022-09-23T19:01:21.009Z,6.38
2022-09-23T19:03:54.125Z,6.68
2022-09-23T19:06:22.292Z,19.40
2022-09-23T19:08:53.947Z,6.57
2022-09-23T19:11:22.975Z,6.70
2022-09-23T19:13:58.564Z,5.97
2022-09-23T19:16:27.458Z,6.60
2022-09-23T19:18:55.300Z,6.60
2022-09-23T19:21:23.116Z,6.25
2022-09-23T19:23:53.394Z,6.70
2022-09-23T19:26:26.287Z,5.72
2022-09-23T19:28:57.538Z,6.72
2022-09-23T19:31:26.917Z,6.40
2022-09-23T19:33:57.202Z,6.55
2022-09-23T19:36:32.819Z,6.65
2022-09-23T19:39:03.248Z,6.07
2022-09-23T19:41:33.437Z,6.40
2022-09-23T19:44:07.647Z,5.32
2022-09-23T19:46:37.740Z,5.82
2022-09-23T19:49:07.525Z,5.90
2022-09-23T19:51:35.496Z,6.15
2022-09-23T19:54:04.812Z,5.90
2022-09-23T19:56:33.388Z,6.70
2022-09-23T19:59:03.206Z,5.55
2022-09-23T20:01:31.944Z,6.18
2022-09-23T20:04:00.036Z,6.18
2022-09-23T20:06:32.594Z,6.30
2022-09-23T20:09:00.968Z,7.32
2022-09-23T20:11:29.034Z,6.55
2022-09-23T20:14:09.513Z,6.68
2022-09-23T20:16:37.391Z,6.03
2022-09-23T20:19:05.799Z,7.03
2022-09-23T20:21:34.551Z,8.82
2022-09-23T20:24:08.653Z,6.72
2022-09-23T20:26:54.393Z,6.55
2022-09-23T20:29:21.601Z,6.30
2022-09-23T20:31:49.425Z,6.35
2022-09-23T20:34:16.974Z,6.82
2022-09-23T20:36:44.306Z,8.95
2022-09-23T20:39:11.725Z,6.55
2022-09-23T20:41:39.925Z,5.90
2022-09-23T20:44:10.456Z,7.60
2022-09-23T20:46:38.277Z,8.45
2022-09-23T20:49:08.046Z,6.95
2022-09-23T20:51:36.140Z,6.32
2022-09-23T20:54:04.490Z,6.88
2022-09-23T20:56:32.123Z,6.85
2022-09-23T20:59:04.404Z,7.00
2022-09-23T21:01:36.661Z,6.88
2022-09-23T21:04:06.121Z,6.78
2022-09-23T21:06:37.457Z,6.87
2022-09-23T21:09:06.218Z,6.93
2022-09-23T21:11:34.050Z,8.77
2022-09-23T21:14:02.254Z,6.97
2022-09-23T21:16:30.003Z,7.25
2022-09-23T21:18:58.544Z,7.25
2022-09-23T21:21:26.647Z,7.68
2022-09-23T21:23:53.997Z,7.28
2022-09-23T21:26:23.350Z,7.15
2022-09-23T21:28:57.657Z,8.73
2022-09-23T21:31:28.289Z,8.13
2022-09-23T21:34:01.179Z,8.27
2022-09-23T21:36:31.644Z,7.57
2022-09-23T21:41:30.101Z,8.13
2022-09-23T21:43:57.885Z,7.85
2022-09-23T21:46:26.439Z,8.60
2022-09-23T21:48:55.790Z,8.65
2022-09-23T21:51:26.052Z,8.35
2022-09-23T21:53:55.223Z,9.02
2022-09-23T21:56:27.261Z,9.20
2022-09-23T21:58:55.709Z,8.63
2022-09-23T22:01:25.786Z,9.45
2022-09-23T22:03:56.069Z,9.70
2022-09-23T22:08:59.129Z,8.35
2022-09-23T22:11:47.794Z,9.85
2022-09-23T22:14:17.354Z,10.35
2022-09-23T22:16:45.260Z,9.75
2022-09-23T22:19:13.800Z,9.52
2022-09-23T22:21:42.789Z,10.02
2022-09-23T22:24:11.640Z,9.63
2022-09-23T22:26:44.158Z,9.82
2022-09-23T22:29:32.413Z,10.35
2022-09-23T22:32:19.794Z,11.48
2022-09-23T22:34:50.623Z,9.90
2022-09-23T22:37:28.366Z,10.07
2022-09-23T22:39:56.049Z,10.10
2022-09-23T22:42:23.087Z,10.32
2022-09-23T22:44:50.963Z,10.20
2022-09-23T22:47:20.510Z,10.27
2022-09-23T22:49:48.966Z,11.10
2022-09-23T22:52:21.222Z,10.18
2022-09-23T22:54:48.862Z,10.15
2022-09-23T22:57:16.624Z,10.02
2022-09-23T22:59:48.119Z,10.55
2022-09-23T23:02:17.934Z,9.98
2022-09-23T23:04:48.675Z,9.37
2022-09-23T23:07:21.525Z,10.02
2022-09-23T23:09:52.624Z,9.88
2022-09-23T23:12:21.045Z,10.15
2022-09-23T23:14:49.536Z,10.15
2022-09-23T23:17:17.847Z,9.80
2022-09-23T23:19:45.242Z,9.45
2022-09-23T23:22:12.918Z,9.50
2022-09-23T23:24:40.710Z,9.07
2022-09-23T23:27:07.933Z,9.38
2022-09-23T23:29:35.107Z,9.15
2022-09-23T23:32:02.560Z,9.18
2022-09-23T23:34:29.613Z,9.00
2022-09-23T23:36:56.733Z,9.10
2022-09-23T23:39:25.586Z,8.88
2022-09-23T23:41:55.666Z,9.80
2022-09-23T23:44:24.756Z,9.95
2022-09-23T23:46:56.124Z,8.98
2022-09-23T23:49:24.102Z,9.13
2022-09-23T23:51:51.632Z,8.57
2022-09-23T23:54:19.245Z,9.75
2022-09-23T23:56:46.726Z,8.98
2022-09-23T23:59:13.691Z,8.02
